Time;durP1;ratioP1;P1;durP2;ratioP2;P2;SDS_P1;SDS_P2;PMS_P1;PMS_P2;Temp;Humidity;BMP_temperature;BMP_pressure;BME280_temperature;BME280_humidity;BME280_pressure;Samples;Min_cycle;Max_cycle;Signal;HPM_P1;HPM_P2
2022/01/23 00:02:44;;;;;;;5.53;4.43;;;;;;;-0.62;46.58;100855.13;7738766;32;39849;-68
2022/01/23 00:07:04;;;;;;;6.35;4.85;;;;;;;-0.79;46.72;100855.19;7738378;32;37857;-68
2022/01/23 00:11:25;;;;;;;13.23;7.60;;;;;;;-0.60;45.80;100858.50;7738775;32;38233;-68
2022/01/23 00:20:16;;;;;;;6.95;4.85;;;;;;;-1.05;47.06;100870.63;7738517;32;40904;-69
2022/01/23 00:33:42;;;;;;;9.60;5.65;;;;;;;-1.74;50.84;100876.31;7738499;32;39248;-68
2022/01/23 00:37:59;;;;;;;8.35;5.68;;;;;;;-1.40;49.27;100861.94;7738330;32;40727;-69
2022/01/23 00:42:15;;;;;;;10.57;5.40;;;;;;;-1.56;49.56;100874.31;7738198;32;39154;-69
2022/01/23 00:46:37;;;;;;;7.25;5.03;;;;;;;-1.56;50.51;100878.81;7738192;32;37079;-69
2022/01/23 00:50:53;;;;;;;9.13;5.00;;;;;;;-1.23;49.08;100874.31;7738233;32;40067;-69
2022/01/23 00:55:09;;;;;;;12.82;5.90;;;;;;;-1.17;48.45;100878.19;7738175;32;40005;-68
2022/01/23 00:59:25;;;;;;;9.05;4.70;;;;;;;-1.00;47.95;100889.69;7738161;32;37569;-68
2022/01/23 01:03:42;;;;;;;7.93;5.30;;;;;;;-0.86;47.29;100890.84;7737791;32;37613;-68
2022/01/23 01:08:00;;;;;;;5.97;4.80;;;;;;;-1.15;47.74;100885.03;7738158;32;39011;-68
2022/01/23 01:12:20;;;;;;;7.68;5.45;;;;;;;-1.04;47.83;100877.66;7737969;32;40110;-68
2022/01/23 01:16:59;;;;;;;13.27;5.03;;;;;;;-0.98;47.63;100871.63;7737906;32;37839;-67
2022/01/23 01:35:35;;;;;;;6.00;4.60;;;;;;;-1.54;48.44;100883.00;7730402;32;232253;-69
2022/01/23 01:39:50;;;;;;;7.45;4.20;;;;;;;-1.14;47.15;100889.38;7737683;32;35888;-69
2022/01/23 01:44:06;;;;;;;6.47;4.32;;;;;;;-1.26;47.66;100893.41;7737496;32;40167;-69
2022/01/23 01:48:25;;;;;;;6.70;5.22;;;;;;;-1.01;46.94;100882.66;7737343;32;39891;-69
2022/01/23 01:52:42;;;;;;;5.53;4.60;;;;;;;-1.24;47.46;100878.00;7737361;32;37652;-68
2022/01/23 01:57:11;;;;;;;6.28;4.85;;;;;;;-1.08;47.40;100871.81;7737412;32;37164;-69
2022/01/23 02:10:19;;;;;;;7.95;5.30;;;;;;;-1.01;47.25;100855.91;7736967;32;38463;-69
2022/01/23 02:51:00;;;;;;;6.72;4.78;;;;;;;-1.45;48.63;100869.62;7733428;32;37307;-69
2022/01/23 02:55:24;;;;;;;7.53;5.10;;;;;;;-1.37;48.83;100870.47;7731513;32;39270;-69
2022/01/23 02:59:40;;;;;;;5.53;4.68;;;;;;;-1.64;49.32;100860.91;7730782;32;39835;-68
2022/01/23 03:04:02;;;;;;;4.80;4.30;;;;;;;-1.73;49.88;100854.72;7974116;26;38691;-68
2022/01/23 03:08:30;;;;;;;7.22;4.72;;;;;;;-1.75;50.04;100839.88;7717805;32;37945;-69
2022/01/23 03:26:48;;;;;;;6.45;4.47;;;;;;;-1.32;49.55;100880.69;7712394;32;36753;-68
2022/01/23 03:35:24;;;;;;;5.15;4.60;;;;;;;-1.16;49.37;100872.62;7712367;32;40810;-69
2022/01/23 03:39:40;;;;;;;5.47;4.62;;;;;;;-1.35;50.52;100887.19;7712314;32;37886;-69
2022/01/23 03:43:57;;;;;;;8.20;4.95;;;;;;;-1.16;50.08;100866.44;7712189;32;36901;-68
2022/01/23 03:52:30;;;;;;;4.80;4.40;;;;;;;-0.98;49.86;100858.25;7712133;32;39993;-69
2022/01/23 03:56:46;;;;;;;7.35;4.28;;;;;;;-0.95;49.97;100850.72;7712123;32;37985;-69
2022/01/23 04:01:02;;;;;;;5.10;4.57;;;;;;;-0.98;50.16;100856.41;7712115;32;37123;-69
2022/01/23 04:05:19;;;;;;;5.90;4.55;;;;;;;-1.16;50.51;100848.53;7711846;32;39357;-68
2022/01/23 04:09:37;;;;;;;7.05;5.12;;;;;;;-1.24;51.09;100856.59;7711886;32;40856;-68
2022/01/23 04:14:01;;;;;;;7.65;4.82;;;;;;;-1.11;50.44;100850.72;7711937;32;37890;-68
2022/01/23 04:32:21;;;;;;;8.57;5.03;;;;;;;-1.22;50.20;100864.47;7711676;32;37724;-66
2022/01/23 04:46:01;;;;;;;5.72;4.87;;;;;;;-0.69;49.16;100846.97;7711599;32;40823;-70
2022/01/23 04:59:50;;;;;;;7.15;5.00;;;;;;;-0.87;50.14;100851.69;7711537;32;39376;-68
2022/01/23 05:04:22;;;;;;;6.15;4.78;;;;;;;-0.57;48.76;100858.13;7711254;32;40912;-67
2022/01/23 05:08:38;;;;;;;4.78;4.35;;;;;;;-0.99;49.76;100851.22;7711198;32;38725;-68
2022/01/23 05:12:55;;;;;;;6.85;4.90;;;;;;;-0.79;49.54;100863.22;7711233;32;37881;-68
2022/01/23 05:17:14;;;;;;;5.62;4.50;;;;;;;-0.86;49.46;100866.72;7711125;32;39864;-68
2022/01/23 05:25:47;;;;;;;6.53;4.75;;;;;;;-0.67;49.08;100871.72;7710966;32;38476;-68
2022/01/23 05:30:04;;;;;;;10.35;4.80;;;;;;;-0.58;48.55;100872.53;7711066;32;37132;-68
2022/01/23 05:34:22;;;;;;;8.15;4.82;;;;;;;-0.66;48.67;100885.94;7710981;32;39362;-68
2022/01/23 05:38:38;;;;;;;7.72;4.53;;;;;;;-0.81;49.33;100894.69;7710903;32;40746;-69
2022/01/23 05:42:54;;;;;;;8.23;5.43;;;;;;;-0.62;48.82;100904.19;7710821;32;37923;-68
2022/01/23 05:47:12;;;;;;;9.02;5.18;;;;;;;-0.63;48.22;100915.91;7709804;32;37091;-68
2022/01/23 05:51:28;;;;;;;8.45;4.60;;;;;;;-0.46;47.84;100923.91;7710690;32;39148;-68
2022/01/23 05:55:44;;;;;;;9.52;5.47;;;;;;;-0.68;48.46;100922.78;7710514;32;40034;-69
2022/01/23 06:00:00;;;;;;;8.15;5.35;;;;;;;-1.28;49.59;100929.34;7710306;32;38670;-68
2022/01/23 06:04:17;;;;;;;9.25;5.72;;;;;;;-1.07;49.81;100929.69;7710222;32;37266;-69
2022/01/23 06:08:33;;;;;;;8.13;5.32;;;;;;;-1.06;49.75;100930.53;7710358;32;39331;-70
2022/01/23 06:12:50;;;;;;;11.02;5.50;;;;;;;-0.98;50.11;100919.81;7710242;32;40803;-69
2022/01/23 06:17:06;;;;;;;8.23;5.30;;;;;;;-0.71;49.73;100923.94;7696250;32;37845;-68
2022/01/23 06:21:24;;;;;;;8.73;5.60;;;;;;;-0.88;50.70;100925.84;7710007;32;37001;-69
2022/01/23 06:25:45;;;;;;;8.15;5.25;;;;;;;-0.77;49.74;100930.00;7709826;32;39354;-69
2022/01/23 06:30:01;;;;;;;8.88;5.37;;;;;;;-0.83;50.80;100936.03;7709820;32;39224;-68
2022/01/23 06:34:19;;;;;;;8.73;5.45;;;;;;;-0.79;50.90;100935.53;7709553;32;39237;-69
2022/01/23 06:38:36;;;;;;;9.85;5.65;;;;;;;-0.89;51.22;100956.28;7709490;32;37830;-70
2022/01/23 06:42:52;;;;;;;8.15;5.12;;;;;;;-0.68;50.01;100957.59;7709372;32;39136;-69
2022/01/23 06:47:08;;;;;;;9.35;5.35;;;;;;;-0.57;49.10;100949.19;7709419;32;39774;-67
2022/01/23 06:51:24;;;;;;;10.15;6.20;;;;;;;-0.47;48.16;100954.38;7709399;32;38388;-68
2022/01/23 06:55:40;;;;;;;10.20;5.90;;;;;;;-1.15;51.13;100951.94;7709331;32;37039;-69
2022/01/23 06:59:56;;;;;;;7.20;5.50;;;;;;;-1.07;51.38;100960.97;7711155;32;40014;-69
2022/01/23 07:04:12;;;;;;;9.40;6.47;;;;;;;-1.24;52.49;100958.28;7712724;32;39951;-68
2022/01/23 07:08:29;;;;;;;7.05;5.32;;;;;;;-1.55;52.89;100964.25;7712712;32;37820;-68
2022/01/23 07:12:45;;;;;;;11.00;5.85;;;;;;;-1.64;53.41;100972.41;7712819;32;37117;-69
2022/01/23 07:17:02;;;;;;;7.85;6.03;;;;;;;-1.18;52.23;100975.50;7712759;32;39894;-69
2022/01/23 07:21:19;;;;;;;9.20;6.37;;;;;;;-0.95;51.48;100983.72;7712670;32;39688;-69
2022/01/23 07:25:36;;;;;;;12.25;6.75;;;;;;;-1.10;51.32;100972.00;7712476;32;39050;-69
2022/01/23 07:29:53;;;;;;;11.63;6.62;;;;;;;-0.73;50.07;100966.13;7712634;32;37125;-69
2022/01/23 07:34:11;;;;;;;11.25;6.57;;;;;;;-0.63;49.23;100965.97;7712504;32;39039;-69
2022/01/23 07:38:27;;;;;;;13.02;6.47;;;;;;;-0.08;48.94;100959.78;7712402;32;39952;-68
2022/01/23 07:42:43;;;;;;;10.40;6.30;;;;;;;0.12;47.75;100964.72;7709525;32;38733;-68
2022/01/23 07:47:00;;;;;;;8.68;6.00;;;;;;;0.11;47.30;100952.34;7708413;32;36871;-68
2022/01/23 07:51:16;;;;;;;10.23;6.57;;;;;;;0.37;47.09;100950.19;7697973;32;39383;-69
2022/01/23 07:55:32;;;;;;;10.40;5.53;;;;;;;-0.01;48.03;100954.56;7711180;32;39999;-69
2022/01/23 07:59:48;;;;;;;7.25;5.50;;;;;;;-0.07;48.10;100949.91;7697670;32;38691;-69
2022/01/23 08:04:05;;;;;;;11.77;6.37;;;;;;;-0.22;48.93;100956.00;7710189;32;36991;-69
2022/01/23 08:08:21;;;;;;;9.25;5.45;;;;;;;0.10;48.53;100953.34;7684718;32;39044;-69
2022/01/23 08:12:39;;;;;;;11.50;6.03;;;;;;;0.41;47.18;100963.25;7684218;32;39724;-68
2022/01/23 08:16:55;;;;;;;6.78;5.35;;;;;;;0.36;47.33;100974.50;7684345;32;37867;-69
2022/01/23 08:21:11;;;;;;;9.82;5.07;;;;;;;0.83;47.22;100978.06;7684769;32;36749;-69
2022/01/23 08:25:28;;;;;;;9.68;5.80;;;;;;;0.98;45.51;100984.34;7684461;32;40025;-69
2022/01/23 08:29:44;;;;;;;8.32;5.43;;;;;;;1.15;45.27;100993.13;7684557;32;40938;-69
2022/01/23 08:34:00;;;;;;;8.77;5.07;;;;;;;1.37;45.00;100991.41;7684626;32;37954;-69
2022/01/23 08:38:17;;;;;;;9.15;5.47;;;;;;;1.44;44.19;100997.72;7684187;32;37038;-69
2022/01/23 08:42:33;;;;;;;9.98;4.95;;;;;;;1.37;44.48;100993.28;7684598;32;39355;-69
2022/01/23 08:46:49;;;;;;;10.20;4.97;;;;;;;1.39;44.41;100980.50;7684134;32;39895;-69
2022/01/23 08:51:06;;;;;;;6.40;4.43;;;;;;;1.95;42.53;100985.44;7684303;32;37716;-69
2022/01/23 08:55:22;;;;;;;8.00;4.47;;;;;;;1.77;43.03;100986.66;7684714;32;37910;-70
2022/01/23 08:59:38;;;;;;;9.38;5.30;;;;;;;1.59;43.33;100999.63;7683985;32;40134;-70
2022/01/23 09:03:54;;;;;;;8.95;4.85;;;;;;;1.37;43.42;100993.28;7690331;32;40761;-70
2022/01/23 09:08:10;;;;;;;11.27;4.97;;;;;;;1.58;43.42;100997.94;7710620;32;37681;-69
2022/01/23 09:13:04;;;;;;;10.05;5.62;;;;;;;2.00;42.87;100994.66;7710796;32;37256;-69
2022/01/23 09:17:04;;;;;;;9.95;5.05;;;;;;;1.29;44.00;100999.53;7710583;32;40010;-69
2022/01/23 09:21:20;;;;;;;9.20;5.25;;;;;;;0.82;44.80;100995.22;7710041;32;40121;-69
2022/01/23 09:25:37;;;;;;;8.40;5.07;;;;;;;1.23;45.84;100994.91;7710059;32;37905;-70
2022/01/23 09:29:55;;;;;;;8.00;4.80;;;;;;;1.28;43.39;100992.53;7710078;32;37830;-69
2022/01/23 09:34:11;;;;;;;10.23;5.20;;;;;;;1.47;43.15;101008.12;7710091;32;39373;-69
2022/01/23 09:38:27;;;;;;;8.38;5.12;;;;;;;1.75;42.46;101010.22;7710332;32;39973;-69
2022/01/23 09:42:52;;;;;;;9.52;4.97;;;;;;;1.72;43.29;100998.97;7710218;32;38662;-69
2022/01/23 09:47:13;;;;;;;8.55;5.05;;;;;;;1.89;42.60;101000.47;7710153;32;37084;-69
2022/01/23 09:51:31;;;;;;;10.43;5.85;;;;;;;1.87;43.09;101008.72;7710205;32;39038;-70
2022/01/23 09:55:49;;;;;;;9.85;4.62;;;;;;;2.40;41.93;101005.09;7696206;32;40098;-70
2022/01/23 10:00:11;;;;;;;9.02;4.78;;;;;;;2.18;40.91;101013.09;7696293;32;38373;-70
2022/01/23 10:04:27;;;;;;;9.45;5.37;;;;;;;2.28;41.96;100993.13;7709372;32;37320;-70
2022/01/23 10:08:43;;;;;;;18.55;7.97;;;;;;;2.34;41.15;100992.38;7686625;32;39309;-70
2022/01/23 10:13:00;;;;;;;11.02;5.40;;;;;;;2.80;40.27;100992.91;7695360;32;39639;-69
2022/01/23 10:17:16;;;;;;;8.43;4.68;;;;;;;3.03;39.88;100986.50;7709578;32;37941;-70
2022/01/23 10:21:35;;;;;;;10.70;5.20;;;;;;;2.98;39.45;100988.94;7710180;32;37391;-70
2022/01/23 10:25:53;;;;;;;10.25;5.62;;;;;;;2.20;41.26;100992.22;7696384;32;39910;-71
2022/01/23 10:30:18;;;;;;;10.63;5.62;;;;;;;2.27;42.07;100984.22;7697736;32;40765;-73
2022/01/23 10:34:51;;;;;;;7.78;4.95;;;;;;;2.74;40.85;100982.91;7684432;32;40368;-71
2022/01/23 10:39:08;;;;;;;9.97;5.17;;;;;;;2.82;40.58;100979.25;7686375;32;37084;-71
2022/01/23 10:48:11;;;;;;;10.35;5.12;;;;;;;2.29;42.02;100992.09;7686259;32;40746;-70
2022/01/23 10:52:35;;;;;;;9.43;5.00;;;;;;;2.20;41.03;100992.22;7686197;32;38686;-71
2022/01/23 10:56:59;;;;;;;8.00;4.82;;;;;;;2.16;40.72;101001.69;7686275;32;37161;-70
2022/01/23 11:01:15;;;;;;;10.88;5.57;;;;;;;1.61;42.24;101000.28;7686167;32;40684;-70
2022/01/23 11:05:39;;;;;;;7.78;4.75;;;;;;;2.68;40.42;100989.06;7699695;32;39704;-71
2022/01/23 11:10:07;;;;;;;9.88;4.95;;;;;;;2.87;40.07;100992.16;7712641;32;38630;-70
2022/01/23 11:18:58;;;;;;;7.85;4.37;;;;;;;3.66;38.41;100992.00;7712697;32;39942;-70
2022/01/23 11:23:23;;;;;;;9.95;4.78;;;;;;;3.81;37.72;100988.34;7712547;32;39948;-70
2022/01/23 11:27:39;;;;;;;8.10;4.72;;;;;;;4.33;36.31;100987.81;7698585;32;38057;-69
2022/01/23 11:31:56;;;;;;;7.22;4.20;;;;;;;3.80;37.59;100986.72;7712459;32;36827;-71
2022/01/23 11:36:12;;;;;;;10.20;4.70;;;;;;;3.97;38.15;100981.81;7712524;32;39073;-70
2022/01/23 11:54:00;;;;;;;9.13;4.65;;;;;;;5.39;34.86;100970.13;7712339;32;40452;-70
2022/01/23 11:58:44;;;;;;;8.65;4.55;;;;;;;5.28;34.85;100968.06;7712243;32;40834;-70
2022/01/23 12:03:08;;;;;;;8.82;4.72;;;;;;;5.54;34.49;100967.22;7711524;32;37606;-70
2022/01/23 12:07:24;;;;;;;11.55;4.80;;;;;;;5.17;34.98;100958.69;7712168;32;36013;-70
2022/01/23 12:11:51;;;;;;;9.10;4.47;;;;;;;6.26;33.42;100945.63;7712034;32;39982;-71
2022/01/23 12:16:25;;;;;;;10.07;4.57;;;;;;;6.53;32.66;100948.19;7711825;32;39736;-71
2022/01/23 12:20:42;;;;;;;7.43;4.25;;;;;;;7.03;31.60;100948.28;7711787;32;37971;-71
2022/01/23 12:25:06;;;;;;;9.45;4.47;;;;;;;7.25;30.76;100942.50;7711776;32;36989;-71
2022/01/23 12:29:26;;;;;;;;;;;;;;;7.18;31.80;100950.69;7711843;32;39218;-71
2022/01/23 12:33:51;;;;;;;7.93;4.15;;;;;;;7.70;30.22;100947.72;7711776;32;39856;-72
2022/01/23 12:38:10;;;;;;;8.80;4.37;;;;;;;7.97;29.04;100937.41;7711468;32;38981;-71
2022/01/23 12:42:46;;;;;;;10.05;4.30;;;;;;;8.47;28.69;100947.28;7711313;32;37075;-71
2022/01/23 12:47:26;;;;;;;7.00;4.18;;;;;;;9.13;27.31;100939.19;7711418;32;40091;-72
2022/01/23 12:51:42;;;;;;;6.90;3.97;;;;;;;8.77;28.00;100930.12;7711507;32;39795;-73
2022/01/23 12:56:04;;;;;;;7.70;3.97;;;;;;;8.97;27.56;100930.66;7711429;32;38068;-72
2022/01/23 13:00:25;;;;;;;11.07;4.28;;;;;;;9.13;27.56;100925.59;7711615;32;37629;-72
2022/01/23 13:04:52;;;;;;;7.25;3.67;;;;;;;8.58;27.37;100932.88;7711914;32;40442;-72
2022/01/23 13:09:28;;;;;;;6.68;3.55;;;;;;;9.48;26.92;100924.78;7710632;32;40734;-72
2022/01/23 13:14:00;;;;;;;8.77;4.12;;;;;;;9.65;26.19;100917.56;7710603;32;37881;-73
2022/01/23 13:18:36;;;;;;;6.53;3.65;;;;;;;9.88;25.11;100924.03;7710723;32;37348;-73
2022/01/23 13:32:18;;;;;;;7.30;3.35;;;;;;;9.88;25.37;100924.87;7711244;32;37848;-73
2022/01/23 13:36:35;;;;;;;6.80;3.37;;;;;;;10.40;23.90;100910.44;7711300;32;37038;-72
2022/01/23 13:41:00;;;;;;;8.32;3.78;;;;;;;10.64;24.39;100915.75;7711080;32;39385;-73
2022/01/23 13:59:06;;;;;;;5.60;3.03;;;;;;;12.59;21.59;100915.88;7686839;32;39848;-73
2022/01/23 14:03:22;;;;;;;7.05;3.15;;;;;;;12.65;20.76;100922.22;7710701;32;39962;-73
2022/01/23 14:07:40;;;;;;;6.75;2.80;;;;;;;13.51;19.91;100919.41;7709518;32;38720;-73
2022/01/23 14:12:05;;;;;;;6.18;2.60;;;;;;;15.48;17.85;100899.59;7710440;32;37175;-72
2022/01/23 14:16:27;;;;;;;4.40;2.30;;;;;;;18.19;15.15;100905.13;7710479;32;38986;-72
2022/01/23 14:20:59;;;;;;;4.07;2.10;;;;;;;20.91;12.23;100895.75;7710148;32;40638;-72
2022/01/23 14:25:20;;;;;;;5.18;2.42;;;;;;;22.01;10.70;100905.34;7709606;32;38798;-71
2022/01/23 14:29:58;;;;;;;4.93;2.42;;;;;;;22.94;9.96;100913.62;7710040;32;36917;-71
2022/01/23 14:34:23;;;;;;;4.10;2.20;;;;;;;23.40;9.42;100903.75;7709854;32;40278;-72
2022/01/23 14:38:52;;;;;;;5.65;2.53;;;;;;;21.48;10.84;100909.03;7709545;32;39891;-72
2022/01/23 14:43:12;;;;;;;5.22;2.30;;;;;;;22.12;10.74;100914.19;7709549;32;38497;-72
2022/01/23 14:47:35;;;;;;;6.22;2.83;;;;;;;21.50;11.02;100926.16;7709433;32;37222;-71
2022/01/23 14:51:53;;;;;;;4.50;2.60;;;;;;;20.44;12.21;100926.47;7707832;32;40080;-73
2022/01/23 14:56:12;;;;;;;3.92;2.03;;;;;;;20.16;12.24;100920.12;7708052;32;39322;-72
2022/01/23 15:00:34;;;;;;;4.57;1.95;;;;;;;18.16;13.70;100938.00;7708084;32;37951;-72
2022/01/23 15:04:50;;;;;;;6.87;2.13;;;;;;;15.37;16.29;100960.06;7707007;32;37567;-70
2022/01/23 15:09:09;;;;;;;3.78;2.05;;;;;;;12.99;18.96;100977.56;7708087;32;39420;-70
2022/01/23 15:13:27;;;;;;;5.10;2.53;;;;;;;11.40;21.36;100976.31;7708248;32;39868;-71
2022/01/23 15:17:43;;;;;;;5.57;2.10;;;;;;;10.18;23.32;100985.72;7708411;32;37978;-70
2022/01/23 15:21:59;;;;;;;5.97;2.85;;;;;;;9.49;24.71;100994.50;7711962;32;37909;-70
2022/01/23 15:26:15;;;;;;;4.07;2.53;;;;;;;8.61;25.37;100999.56;7712281;32;39321;-70
2022/01/23 15:30:32;;;;;;;5.95;2.62;;;;;;;7.93;26.98;101011.38;7712205;32;39971;-70
2022/01/23 15:34:49;;;;;;;18.67;8.75;;;;;;;7.41;28.39;101012.47;7712323;32;37901;-69
2022/01/23 15:39:06;;;;;;;11.68;6.65;;;;;;;6.85;29.28;101022.25;7712458;32;38234;-69
2022/01/23 15:43:23;;;;;;;10.10;4.68;;;;;;;6.22;30.68;101032.91;7712315;32;39347;-68
2022/01/23 15:47:40;;;;;;;4.32;3.15;;;;;;;5.94;31.37;101034.00;7712001;32;39792;-68
2022/01/23 15:51:56;;;;;;;5.32;3.03;;;;;;;5.74;31.97;101047.53;7711987;32;38496;-69
2022/01/23 15:56:12;;;;;;;5.15;3.62;;;;;;;5.28;32.17;101051.91;7712102;32;36977;-70
2022/01/23 16:00:28;;;;;;;4.65;2.70;;;;;;;5.20;33.33;101050.19;7712151;32;39267;-69
2022/01/23 16:04:45;;;;;;;6.18;3.55;;;;;;;4.82;33.85;101056.12;7711934;32;39987;-69
2022/01/23 16:09:01;;;;;;;7.60;3.78;;;;;;;5.16;32.69;101073.28;7711758;32;38730;-68
2022/01/23 16:13:18;;;;;;;5.97;3.55;;;;;;;4.63;33.93;101075.81;7711815;32;37050;-67
2022/01/23 16:17:35;;;;;;;11.10;5.37;;;;;;;4.96;33.71;101077.81;7711027;32;40636;-69
2022/01/23 16:21:55;;;;;;;14.65;5.93;;;;;;;4.40;34.26;101068.84;7710990;32;39998;-67
2022/01/23 16:26:12;;;;;;;49.08;18.98;;;;;;;4.32;37.63;101072.53;7711647;32;38670;-68
2022/01/23 16:30:52;;;;;;;24.98;9.95;;;;;;;3.95;37.01;101079.16;7706245;32;37362;-68
2022/01/23 16:35:09;;;;;;;20.35;9.10;;;;;;;3.67;37.75;101079.97;7690111;32;39404;-68
2022/01/23 16:39:25;;;;;;;22.48;9.25;;;;;;;3.42;38.53;101078.72;7685032;32;40021;-68
2022/01/23 16:43:41;;;;;;;21.20;9.55;;;;;;;3.35;38.70;101084.87;7684905;32;38779;-68
2022/01/23 16:47:57;;;;;;;18.40;8.02;;;;;;;3.43;38.69;101094.69;7684952;32;37486;-68
2022/01/23 16:52:13;;;;;;;18.08;7.82;;;;;;;3.67;37.53;101103.41;7684690;32;40137;-70
2022/01/23 16:56:29;;;;;;;14.38;6.72;;;;;;;3.32;38.19;101104.13;7684796;32;39883;-69
2022/01/23 17:00:45;;;;;;;15.05;6.70;;;;;;;3.38;37.96;101113.28;7670961;32;37915;-68
2022/01/23 17:05:01;;;;;;;12.43;7.22;;;;;;;3.17;38.74;101122.19;7692972;32;37108;-68
2022/01/23 17:09:18;;;;;;;13.73;8.50;;;;;;;3.05;39.48;101129.13;7711150;32;39646;-68
2022/01/23 17:13:34;;;;;;;13.25;6.62;;;;;;;3.42;38.73;101122.69;7711112;32;39829;-68
2022/01/23 17:17:51;;;;;;;14.68;7.93;;;;;;;3.18;39.43;101124.72;7710981;32;37839;-68
2022/01/23 17:22:07;;;;;;;11.35;6.82;;;;;;;3.00;40.22;101126.97;7711001;32;37922;-67
2022/01/23 17:26:26;;;;;;;14.63;7.47;;;;;;;3.20;39.71;101127.22;7711234;32;40141;-68
2022/01/23 17:30:42;;;;;;;13.45;7.03;;;;;;;2.97;40.42;101138.97;7711143;32;39941;-68
2022/01/23 17:34:58;;;;;;;15.75;8.57;;;;;;;2.94;40.66;101141.22;7710976;32;38890;-68
2022/01/23 17:39:15;;;;;;;15.80;8.77;;;;;;;3.02;40.19;101149.19;7711068;32;37368;-68
2022/01/23 17:43:31;;;;;;;19.75;9.60;;;;;;;2.74;40.58;101157.09;7709764;32;40126;-68
2022/01/23 17:52:11;;;;;;;19.12;9.38;;;;;;;2.81;41.02;101166.09;7709468;32;38163;-67
2022/01/23 17:56:29;;;;;;;13.60;7.82;;;;;;;2.58;42.57;101177.00;7710403;32;36934;-69
2022/01/23 18:00:45;;;;;;;17.98;8.57;;;;;;;2.58;42.44;101172.44;7708566;32;39471;-67
2022/01/23 18:05:04;;;;;;;16.37;7.28;;;;;;;2.70;42.17;101180.06;7705190;32;39892;-68
2022/01/23 18:09:23;;;;;;;13.00;6.82;;;;;;;2.95;41.47;101165.28;7709825;32;37778;-67
2022/01/23 18:13:55;;;;;;;17.35;8.65;;;;;;;2.41;42.72;101171.78;7709751;32;37078;-68
2022/01/23 18:18:12;;;;;;;12.73;6.72;;;;;;;2.63;41.92;101175.41;7709940;32;39377;-68
2022/01/23 18:22:32;;;;;;;11.07;6.75;;;;;;;2.42;42.83;101178.84;7709728;32;40360;-68
2022/01/23 18:26:50;;;;;;;11.45;6.37;;;;;;;1.98;43.92;101181.44;7709663;32;37520;-67
2022/01/23 18:31:07;;;;;;;9.95;6.15;;;;;;;2.20;43.58;101188.63;7709603;32;37864;-68
2022/01/23 18:35:23;;;;;;;11.52;6.22;;;;;;;2.14;43.01;101197.44;7709293;32;40147;-66
2022/01/23 18:39:39;;;;;;;12.35;6.62;;;;;;;2.38;42.88;101195.53;7685141;32;40009;-67
2022/01/23 18:43:56;;;;;;;11.12;6.30;;;;;;;1.75;44.36;101202.97;7681918;32;37673;-67
2022/01/23 18:48:12;;;;;;;14.48;6.90;;;;;;;2.21;43.03;101209.16;7682014;32;37999;-68
2022/01/23 18:52:30;;;;;;;10.25;6.45;;;;;;;2.05;43.07;101209.28;7682359;32;39488;-68
2022/01/23 19:01:16;;;;;;;10.98;6.15;;;;;;;2.08;43.29;101208.09;7684381;32;38696;-67
2022/01/23 19:05:35;;;;;;;10.88;6.65;;;;;;;2.27;42.87;101221.03;7696662;32;38169;-67
2022/01/23 19:09:53;;;;;;;14.80;7.57;;;;;;;1.79;43.88;101226.63;7712231;32;37929;-67
2022/01/23 19:14:12;;;;;;;15.07;7.12;;;;;;;1.73;43.81;101235.41;7711969;32;39998;-67
2022/01/23 19:18:31;;;;;;;15.63;7.18;;;;;;;1.68;43.86;101235.94;7711674;32;38010;-67
2022/01/23 19:22:48;;;;;;;11.63;7.00;;;;;;;1.69;43.60;101248.38;7711976;32;37200;-67
2022/01/23 19:27:04;;;;;;;11.15;6.30;;;;;;;1.78;43.16;101245.66;7711919;32;39514;-67
2022/01/23 19:31:21;;;;;;;10.65;5.82;;;;;;;1.92;42.89;101252.09;7711666;32;40798;-66
2022/01/23 19:35:38;;;;;;;12.80;6.37;;;;;;;1.64;43.33;101255.31;7711533;32;38754;-68
2022/01/23 19:39:59;;;;;;;10.98;5.68;;;;;;;1.55;43.76;101267.09;7711890;32;37099;-68
2022/01/23 19:44:27;;;;;;;8.32;5.10;;;;;;;1.82;43.41;101277.37;7711823;32;40110;-67
2022/01/23 19:48:49;;;;;;;11.12;5.62;;;;;;;1.57;44.02;101283.88;7711389;32;39741;-68
2022/01/23 19:53:07;;;;;;;9.33;5.23;;;;;;;1.54;43.99;101295.00;7711416;32;37814;-67
2022/01/23 19:57:23;;;;;;;12.10;6.10;;;;;;;1.16;44.87;101294.84;7711500;32;37144;-67
2022/01/23 20:01:39;;;;;;;10.70;5.80;;;;;;;1.15;44.47;101304.72;7711455;32;39547;-67
2022/01/23 20:05:56;;;;;;;9.45;5.32;;;;;;;1.21;44.15;101304.03;7710742;32;40674;-69
2022/01/23 20:11:18;;;;;;;9.80;5.82;;;;;;;0.93;45.32;101312.50;7711320;32;37823;-70
2022/01/23 20:14:58;;;;;;;30.42;14.87;;;;;;;0.87;45.61;101315.88;7698074;32;37003;-68
2022/01/23 20:19:15;;;;;;;21.87;11.65;;;;;;;0.99;45.06;101310.97;7711267;32;40164;-69
2022/01/23 20:23:31;;;;;;;13.45;6.10;;;;;;;0.89;45.31;101321.06;7710939;32;39957;-68
2022/01/23 20:27:48;;;;;;;9.38;5.50;;;;;;;0.79;45.31;101325.78;7710946;32;37940;-69
2022/01/23 20:32:07;;;;;;;10.55;6.55;;;;;;;0.82;45.09;101325.44;7711020;32;37023;-69
2022/01/23 20:36:24;;;;;;;10.75;6.40;;;;;;;0.80;45.55;101322.94;7711171;32;39658;-69
2022/01/23 20:40:53;;;;;;;13.18;6.90;;;;;;;0.72;45.83;101320.25;7710897;32;39974;-69
2022/01/23 20:45:09;;;;;;;11.85;6.18;;;;;;;0.79;44.92;101318.56;7710756;32;37915;-69
2022/01/23 20:49:27;;;;;;;11.45;5.57;;;;;;;0.79;44.78;101320.41;7711031;32;36846;-69
2022/01/23 20:57:59;;;;;;;9.55;6.15;;;;;;;0.81;44.28;101339.88;7710810;32;39886;-68
2022/01/23 21:02:15;;;;;;;15.90;6.82;;;;;;;0.55;44.82;101355.19;7710496;32;37846;-69
2022/01/23 21:06:31;;;;;;;10.80;6.55;;;;;;;0.54;44.84;101355.34;7710331;32;37865;-69
2022/01/23 21:10:48;;;;;;;11.00;6.20;;;;;;;0.67;44.38;101355.69;7710525;32;39190;-69
2022/01/23 21:41:46;;;;;;;11.30;7.00;;;;;;;-0.09;46.90;101381.69;7709378;32;36937;-69
2022/01/23 21:46:02;;;;;;;18.02;8.68;;;;;;;0.06;46.02;101394.50;7709936;32;39140;-69
2022/01/23 21:50:18;;;;;;;15.93;8.88;;;;;;;-0.19;47.33;101391.72;7710068;32;40732;-68
2022/01/23 21:54:35;;;;;;;14.18;7.90;;;;;;;0.04;47.24;101385.78;7695971;32;38597;-69
2022/01/23 21:58:52;;;;;;;18.25;8.82;;;;;;;0.03;47.25;101386.78;7710051;32;37981;-69
2022/01/23 22:03:09;;;;;;;17.62;8.15;;;;;;;0.09;46.83;101386.97;7709335;32;40090;-69
2022/01/23 22:07:28;;;;;;;17.95;8.05;;;;;;;0.16;47.08;101400.56;7709670;32;39948;-69
2022/01/23 22:16:18;;;;;;;13.30;7.82;;;;;;;0.04;47.13;101415.28;7709413;32;37790;-68
2022/01/23 22:20:37;;;;;;;15.55;8.55;;;;;;;-0.30;48.05;101422.34;7709177;32;39488;-68
2022/01/23 22:29:28;;;;;;;14.93;9.00;;;;;;;-0.57;51.26;101439.44;7709623;32;38533;-69
2022/01/23 22:33:44;;;;;;;20.00;10.02;;;;;;;-0.60;51.29;101437.94;7712524;32;36921;-69
2022/01/23 22:38:00;;;;;;;13.10;9.10;;;;;;;-0.83;53.30;101442.97;7712486;32;39321;-69
2022/01/23 22:42:17;;;;;;;14.35;8.57;;;;;;;-0.83;53.16;101442.12;7711957;32;40032;-68
2022/01/23 22:46:34;;;;;;;19.08;8.90;;;;;;;-0.80;52.04;101437.28;7712799;32;38778;-69
2022/01/23 22:50:50;;;;;;;15.35;8.95;;;;;;;-0.84;50.35;101433.25;7712443;32;37110;-69
2022/01/23 22:55:06;;;;;;;12.23;7.97;;;;;;;-0.87;49.98;101430.88;7712292;32;39961;-69
2022/01/23 22:59:23;;;;;;;13.52;8.15;;;;;;;-1.19;50.61;101448.38;7712351;32;40158;-68
2022/01/23 23:03:40;;;;;;;12.23;7.57;;;;;;;-0.87;49.49;101427.38;7711986;32;37911;-70
2022/01/23 23:07:56;;;;;;;14.32;7.35;;;;;;;-1.22;50.63;101427.28;7712367;32;36908;-68
2022/01/23 23:12:12;;;;;;;13.55;7.72;;;;;;;-0.64;57.15;101419.63;7711725;32;39081;-69
2022/01/23 23:16:36;;;;;;;13.10;7.78;;;;;;;-0.84;51.02;101430.56;7694737;32;39667;-69
2022/01/23 23:21:00;;;;;;;14.60;7.70;;;;;;;-0.82;49.90;101447.31;7685414;32;37927;-68
2022/01/23 23:25:16;;;;;;;14.68;8.10;;;;;;;-0.80;49.52;101439.97;7685370;32;37548;-69
2022/01/23 23:29:32;;;;;;;12.85;7.43;;;;;;;-0.88;48.92;101437.25;7684990;32;39375;-68
2022/01/23 23:33:49;;;;;;;15.40;7.95;;;;;;;-0.66;48.33;101429.69;7685902;32;39835;-69
2022/01/23 23:38:05;;;;;;;13.25;8.80;;;;;;;-1.09;49.83;101452.78;7686283;32;39140;-68
2022/01/23 23:42:37;;;;;;;14.25;7.82;;;;;;;-1.11;49.88;101460.97;7685087;32;37286;-69
2022/01/23 23:46:58;;;;;;;14.10;7.95;;;;;;;-1.33;49.91;101454.25;7685908;32;39355;-69
2022/01/23 23:51:14;;;;;;;10.85;7.50;;;;;;;-1.25;49.63;101461.53;7685699;32;40852;-69
2022/01/23 23:55:31;;;;;;;13.40;8.18;;;;;;;-1.17;49.36;101461.59;7685741;32;38773;-69